EGKA

Shoreham Airport

Brighton, United Kingdom
METAR EGKA 171620Z 23016KT 9999 FEW045 19/14 Q1020
Observed Flight Rules
Aug-17 @ 16:20 UTC (32 minutes ago) Visual Flight Rules
Wind Visibility Clouds
230° at 16 knots 10,000+ meters
  • Few at 4,500' AGL
Temperatures Readings
Current 19°C / 66°F
Dewpoint 14°C / 57°F
Humidity 73%
Altimeter 30.12" Hg
Pressure 1020 hPa
Elevation 2
METAR EGKA 171620Z 23016KT 9999 FEW045 19/14 Q1020
Observed Flight Rules
Aug-17 @ 16:20 UTC
(32 minutes ago)
VFR
Wind Visibility
230° at 16 knots 10,000+ meters
Clouds
  • Few at 4,500' AGL
Temperature Dewpoint
19°C / 66°F 14°C / 57°F
Humidity Altimeter Pressure
73% 30.12" Hg 1020 hPa